Time;durP1;ratioP1;P1;durP2;ratioP2;P2;SDS_P1;SDS_P2;PMS_P1;PMS_P2;Temp;Humidity;BMP_temperature;BMP_pressure;BME280_temperature;BME280_humidity;BME280_pressure;Samples;Min_cycle;Max_cycle;Signal;HPM_P1;HPM_P2
2022/02/17 00:00:27;;;;;;;48.30;27.98;;;;;;;7.19;69.73;101157.28;4876776;29;20077;-62
2022/02/17 00:02:54;;;;;;;50.17;29.23;;;;;;;7.12;69.80;101156.66;4880746;29;20506;-62
2022/02/17 00:05:22;;;;;;;60.97;29.98;;;;;;;7.15;69.52;101153.91;4880926;29;20498;-62
2022/02/17 00:07:49;;;;;;;47.25;28.17;;;;;;;7.12;70.10;101159.25;4879606;29;20049;-62
2022/02/17 00:10:18;;;;;;;44.42;28.70;;;;;;;7.15;70.04;101153.06;4880925;29;20108;-62
2022/02/17 00:12:44;;;;;;;38.47;25.95;;;;;;;7.15;69.77;101137.41;4880705;29;20101;-62
2022/02/17 00:15:14;;;;;;;44.83;24.48;;;;;;;7.03;69.81;101131.72;4880662;29;20050;-62
2022/02/17 00:17:41;;;;;;;49.50;26.15;;;;;;;6.97;70.18;101136.28;4880631;29;20049;-62
2022/02/17 00:20:10;;;;;;;45.33;25.23;;;;;;;6.99;69.91;101129.28;4880601;29;20053;-62
2022/02/17 00:22:37;;;;;;;45.55;26.55;;;;;;;7.01;69.88;101130.09;4880593;29;20113;-62
2022/02/17 00:25:05;;;;;;;40.85;26.05;;;;;;;7.03;69.82;101126.50;4879527;29;20120;-61
2022/02/17 00:27:32;;;;;;;43.05;25.95;;;;;;;7.06;69.64;101122.06;4880532;29;20057;-62
2022/02/17 00:29:59;;;;;;;42.00;25.60;;;;;;;7.08;69.38;101113.28;4880455;29;20049;-62
2022/02/17 00:32:25;;;;;;;39.58;24.45;;;;;;;7.07;69.47;101121.16;4880496;29;20053;-61
2022/02/17 00:34:52;;;;;;;38.10;25.48;;;;;;;7.07;69.31;101121.16;4880321;29;20053;-62
2022/02/17 00:37:19;;;;;;;42.97;25.05;;;;;;;7.06;69.13;101115.13;4880019;29;20792;-61
2022/02/17 00:39:46;;;;;;;41.83;25.30;;;;;;;7.03;69.15;101116.06;4879595;29;20057;-62
2022/02/17 00:42:15;;;;;;;45.65;24.92;;;;;;;6.90;69.44;101114.78;4879221;29;20052;-61
2022/02/17 00:44:42;;;;;;;34.35;23.52;;;;;;;6.95;69.60;101105.03;4880158;29;20049;-62
2022/02/17 00:47:13;;;;;;;49.08;24.92;;;;;;;6.89;69.37;101091.38;4880199;29;20101;-62
2022/02/17 00:49:39;;;;;;;38.40;24.38;;;;;;;6.83;69.71;101098.50;4880191;29;20101;-61
2022/02/17 00:52:07;;;;;;;34.38;23.77;;;;;;;6.90;69.50;101099.13;4880017;29;20407;-61
2022/02/17 00:54:33;;;;;;;39.20;23.95;;;;;;;6.83;69.62;101102.88;4880025;29;20045;-62
2022/02/17 00:57:00;;;;;;;41.30;24.45;;;;;;;6.72;69.27;101105.00;4880084;29;20053;-61
2022/02/17 00:59:28;;;;;;;43.80;24.65;;;;;;;6.74;69.46;101093.59;4879088;29;20076;-62
2022/02/17 01:01:56;;;;;;;37.72;23.58;;;;;;;6.71;69.66;101085.91;4879185;29;20071;-61
2022/02/17 01:04:25;;;;;;;34.17;23.80;;;;;;;6.73;69.62;101097.13;4879884;29;20049;-62
2022/02/17 01:06:52;;;;;;;35.78;24.40;;;;;;;6.76;69.31;101086.59;4879744;29;20045;-62
2022/02/17 01:09:19;;;;;;;38.38;24.70;;;;;;;6.78;69.33;101089.13;4879739;29;20082;-62
2022/02/17 01:11:45;;;;;;;37.63;24.88;;;;;;;6.77;69.38;101082.25;4879731;29;20087;-62
2022/02/17 01:14:12;;;;;;;41.25;25.17;;;;;;;6.74;69.44;101082.31;4879707;29;20290;-62
2022/02/17 01:16:39;;;;;;;39.33;24.60;;;;;;;6.75;69.27;101089.25;4878553;29;20057;-62
2022/02/17 01:19:06;;;;;;;31.38;22.63;;;;;;;6.78;69.29;101082.19;4879597;29;20108;-62
2022/02/17 01:21:33;;;;;;;40.15;24.83;;;;;;;6.74;69.45;101074.50;4879685;29;20472;-62
2022/02/17 01:24:00;;;;;;;39.97;25.05;;;;;;;6.73;69.35;101078.88;4879610;29;20052;-62
2022/02/17 01:26:27;;;;;;;36.17;23.88;;;;;;;6.73;69.22;101084.09;4879425;29;20421;-61
2022/02/17 01:28:54;;;;;;;45.92;22.83;;;;;;;6.67;69.26;101102.56;4879384;29;20464;-62
2022/02/17 01:31:20;;;;;;;37.08;23.73;;;;;;;6.70;69.31;101102.44;4878318;29;20101;-61
2022/02/17 01:33:47;;;;;;;35.67;23.80;;;;;;;6.73;69.53;101106.69;4879239;29;20049;-62
2022/02/17 01:36:14;;;;;;;38.97;24.30;;;;;;;6.66;69.46;101108.69;4879374;29;20045;-62
2022/02/17 01:38:44;;;;;;;33.60;23.45;;;;;;;6.71;69.51;101091.13;4879062;29;20065;-62
2022/02/17 01:41:11;;;;;;;35.42;24.30;;;;;;;6.72;69.20;101087.59;4879189;29;20089;-62
2022/02/17 01:43:38;;;;;;;45.88;24.27;;;;;;;6.67;69.55;101079.09;4879150;29;20053;-61
2022/02/17 01:46:06;;;;;;;38.90;24.45;;;;;;;6.66;69.51;101073.00;4878979;29;20064;-61
2022/02/17 01:48:33;;;;;;;41.20;25.58;;;;;;;6.67;69.20;101074.72;4878017;29;20053;-62
2022/02/17 01:51:00;;;;;;;39.55;23.77;;;;;;;6.65;69.33;101073.06;4878986;29;20717;-62
2022/02/17 01:53:27;;;;;;;39.85;24.05;;;;;;;6.62;69.49;101088.84;4878264;29;20045;-62
2022/02/17 01:55:55;;;;;;;39.05;24.00;;;;;;;6.60;69.46;101080.19;4878797;29;20049;-61
2022/02/17 01:58:22;;;;;;;34.63;22.48;;;;;;;6.58;69.49;101068.97;4878815;29;20045;-62
2022/02/17 02:00:49;;;;;;;36.83;23.58;;;;;;;6.60;69.33;101064.56;4878730;29;20053;-61
2022/02/17 02:03:16;;;;;;;37.38;22.75;;;;;;;6.54;69.51;101065.63;4878910;29;20129;-61
2022/02/17 02:05:43;;;;;;;30.33;21.52;;;;;;;6.43;69.65;101068.59;4877694;29;20053;-61
2022/02/17 02:08:10;;;;;;;36.55;23.67;;;;;;;6.45;69.69;101085.06;4878807;29;20053;-62
2022/02/17 02:10:37;;;;;;;35.85;24.10;;;;;;;6.48;69.50;101087.53;4878772;29;20113;-61
2022/02/17 02:13:15;;;;;;;39.45;23.42;;;;;;;6.50;69.39;101083.13;5129956;27;20150;-62
2022/02/17 02:15:44;;;;;;;36.63;23.98;;;;;;;6.51;69.30;101077.03;5129831;28;20043;-62
2022/02/17 02:18:10;;;;;;;38.70;24.27;;;;;;;6.54;69.51;101066.47;5129656;28;20047;-62
2022/02/17 02:20:48;;;;;;;37.58;24.15;;;;;;;6.56;69.51;101070.78;5129644;28;20047;-62
2022/02/17 02:23:15;;;;;;;35.30;23.13;;;;;;;6.58;69.69;101068.97;5119469;27;20048;-62
2022/02/17 02:25:47;;;;;;;39.88;24.98;;;;;;;6.60;69.45;101070.63;5109101;28;20051;-62
2022/02/17 02:28:22;;;;;;;42.33;24.20;;;;;;;6.59;69.23;101060.25;5108967;28;20083;-62
2022/02/17 02:30:49;;;;;;;36.70;23.55;;;;;;;6.57;69.55;101070.72;5108903;28;20097;-62
2022/02/17 02:33:17;;;;;;;34.40;21.83;;;;;;;6.53;69.32;101071.75;5108956;28;20044;-62
2022/02/17 02:35:44;;;;;;;36.00;23.00;;;;;;;6.53;69.33;101059.56;5108962;28;20044;-62
2022/02/17 02:38:11;;;;;;;39.25;23.80;;;;;;;6.49;69.49;101072.75;5108902;28;20074;-62
2022/02/17 02:40:38;;;;;;;35.63;23.60;;;;;;;6.51;69.28;101092.66;5108297;27;20043;-62
2022/02/17 02:43:06;;;;;;;41.35;25.10;;;;;;;6.51;69.23;101087.44;5108624;28;20085;-62
2022/02/17 02:45:34;;;;;;;38.47;23.63;;;;;;;6.51;69.39;101078.75;5108740;28;20096;-62
2022/02/17 02:48:05;;;;;;;44.45;23.75;;;;;;;6.48;69.54;101058.03;5108765;28;20457;-62
2022/02/17 02:50:33;;;;;;;36.08;23.55;;;;;;;6.50;69.69;101051.84;5108614;28;20062;-62
2022/02/17 02:52:59;;;;;;;37.72;24.75;;;;;;;6.53;69.61;101048.28;5108654;28;20093;-62
2022/02/17 02:55:27;;;;;;;36.25;22.80;;;;;;;6.56;69.71;101052.53;5108533;28;20055;-62
2022/02/17 02:57:54;;;;;;;39.25;24.05;;;;;;;6.57;69.58;101047.25;5108538;27;20047;-61
2022/02/17 03:00:21;;;;;;;39.47;24.40;;;;;;;6.58;69.47;101033.34;5108545;28;20044;-62
2022/02/17 03:02:47;;;;;;;40.38;23.95;;;;;;;6.55;69.60;101028.19;5090115;28;20105;-62
2022/02/17 03:05:14;;;;;;;39.35;24.48;;;;;;;6.54;69.68;101026.53;5108497;28;20048;-62
2022/02/17 03:07:41;;;;;;;40.05;24.23;;;;;;;6.54;69.91;101027.38;5108348;28;20044;-62
2022/02/17 03:10:08;;;;;;;41.53;24.25;;;;;;;6.52;69.79;101029.16;5108192;28;20093;-62
2022/02/17 03:12:36;;;;;;;38.25;23.08;;;;;;;6.49;69.89;101031.06;5108124;28;20560;-62
2022/02/17 03:15:04;;;;;;;43.17;23.15;;;;;;;6.49;69.79;101033.66;5127715;27;20478;-62
2022/02/17 03:17:31;;;;;;;39.10;24.20;;;;;;;6.47;70.07;101035.47;5128824;28;20043;-62
2022/02/17 03:19:57;;;;;;;41.38;24.65;;;;;;;6.41;70.02;101035.66;5128794;28;20044;-62
2022/02/17 03:22:25;;;;;;;40.00;23.63;;;;;;;6.45;69.97;101035.53;5127404;28;20051;-62
2022/02/17 03:24:54;;;;;;;39.40;25.20;;;;;;;6.46;70.02;101028.53;5114597;28;20127;-62
2022/02/17 03:27:21;;;;;;;41.58;24.17;;;;;;;6.52;69.72;101037.00;5114946;28;20055;-62
2022/02/17 03:29:47;;;;;;;43.20;24.80;;;;;;;6.49;69.75;101038.88;5108737;28;20548;-62
2022/02/17 03:32:14;;;;;;;40.75;23.70;;;;;;;6.47;69.74;101043.28;5094272;28;20069;-62
2022/02/17 03:34:40;;;;;;;43.47;23.60;;;;;;;6.43;69.96;101032.09;5094246;28;20488;-62
2022/02/17 03:37:07;;;;;;;39.75;24.77;;;;;;;6.43;69.91;101033.88;5094133;28;20048;-62
2022/02/17 03:39:33;;;;;;;37.95;23.60;;;;;;;6.45;69.88;101032.03;5094124;28;20470;-62
2022/02/17 03:42:00;;;;;;;39.83;23.88;;;;;;;6.46;70.03;101038.97;5094186;28;20052;-61
2022/02/17 03:44:27;;;;;;;38.50;23.88;;;;;;;6.45;69.99;101051.16;5094180;28;20044;-62
2022/02/17 03:46:55;;;;;;;36.90;23.38;;;;;;;6.46;69.87;101050.25;5093636;27;20457;-62
2022/02/17 03:49:23;;;;;;;42.55;23.83;;;;;;;6.45;69.69;101060.72;5094058;28;20097;-62
2022/02/17 03:51:51;;;;;;;39.92;22.30;;;;;;;6.48;69.60;101050.19;5093790;28;20059;-62
2022/02/17 03:54:18;;;;;;;36.80;22.40;;;;;;;6.48;69.65;101045.00;5093905;28;20070;-62
2022/02/17 03:56:45;;;;;;;36.58;22.05;;;;;;;6.44;69.70;101041.63;5093724;28;20496;-62
2022/02/17 03:59:12;;;;;;;34.55;21.92;;;;;;;6.42;69.82;101050.41;5093677;28;20070;-62
2022/02/17 04:01:45;;;;;;;36.75;23.08;;;;;;;6.41;69.77;101043.47;5093637;28;20093;-62
2022/02/17 04:04:17;;;;;;;39.00;21.88;;;;;;;6.43;70.03;101041.69;5103974;27;20499;-62
2022/02/17 04:06:44;;;;;;;38.17;22.70;;;;;;;6.41;69.90;101056.53;5109939;28;20052;-62
2022/02/17 04:09:10;;;;;;;48.33;23.48;;;;;;;6.36;70.00;101052.31;5110605;28;20415;-62
2022/02/17 04:11:37;;;;;;;42.65;23.75;;;;;;;6.32;70.26;101049.88;5110471;28;20062;-61
2022/02/17 04:14:04;;;;;;;41.60;23.85;;;;;;;6.35;70.10;101040.19;5110399;28;20047;-62
2022/02/17 04:16:31;;;;;;;36.88;21.55;;;;;;;6.38;69.87;101047.06;5110594;28;20112;-62
2022/02/17 04:18:58;;;;;;;47.17;23.15;;;;;;;6.37;69.89;101050.56;5110703;28;20052;-62
2022/02/17 04:21:25;;;;;;;37.50;21.63;;;;;;;6.37;69.95;101045.34;5104751;27;20044;-62
2022/02/17 04:23:52;;;;;;;37.55;21.58;;;;;;;6.37;70.07;101037.53;5089962;28;20040;-62
2022/02/17 04:26:20;;;;;;;33.88;21.45;;;;;;;6.36;69.97;101020.19;5089797;28;20047;-62
2022/02/17 04:28:47;;;;;;;35.72;21.55;;;;;;;6.34;70.16;101020.22;5089776;28;20048;-62
2022/02/17 04:31:14;;;;;;;35.17;21.25;;;;;;;6.35;70.06;101021.94;5090123;28;20093;-62
2022/02/17 04:33:43;;;;;;;32.67;20.60;;;;;;;6.30;69.99;101034.28;5089920;28;20101;-62
2022/02/17 04:36:10;;;;;;;33.90;20.20;;;;;;;6.30;70.27;101036.88;5088605;27;20044;-62
2022/02/17 04:38:36;;;;;;;33.92;20.13;;;;;;;6.17;70.74;101023.44;5089658;28;20093;-62
2022/02/17 04:43:48;;;;;;;33.22;19.60;;;;;;;6.19;70.49;101026.81;5089581;28;20097;-62
2022/02/17 04:46:15;;;;;;;37.20;20.63;;;;;;;6.18;70.57;101019.94;5089542;28;20093;-62
2022/02/17 04:48:42;;;;;;;38.45;21.48;;;;;;;6.15;70.54;101012.19;5089287;28;20052;-61
2022/02/17 04:51:10;;;;;;;37.17;21.70;;;;;;;6.16;70.72;101006.09;5089538;28;20044;-62
2022/02/17 04:53:37;;;;;;;34.38;20.52;;;;;;;6.19;70.62;100999.91;5089159;28;20101;-62
2022/02/17 04:56:04;;;;;;;39.13;21.17;;;;;;;6.18;70.67;100991.25;5106007;27;20077;-62
2022/02/17 04:58:31;;;;;;;41.33;20.90;;;;;;;6.20;70.54;100993.81;5109823;28;20047;-62
2022/02/17 05:00:57;;;;;;;37.58;21.45;;;;;;;6.21;70.60;100992.91;5109550;28;20047;-62
2022/02/17 05:03:24;;;;;;;45.15;22.23;;;;;;;6.18;70.59;100993.88;5109619;28;20051;-62
2022/02/17 05:05:52;;;;;;;34.15;20.52;;;;;;;6.12;70.56;101009.72;5109701;28;20088;-62
2022/02/17 05:08:19;;;;;;;33.17;19.65;;;;;;;6.12;70.86;101003.63;5109727;28;20047;-62
2022/02/17 05:10:47;;;;;;;36.70;20.23;;;;;;;6.09;70.98;101011.56;5109295;28;20491;-62
2022/02/17 05:13:14;;;;;;;38.45;20.35;;;;;;;6.14;70.86;101013.09;5108795;27;20063;-62
2022/02/17 05:15:42;;;;;;;33.45;20.50;;;;;;;6.16;70.81;101007.84;5109327;28;20048;-62
2022/02/17 05:18:08;;;;;;;37.40;20.73;;;;;;;6.16;70.87;101034.75;5100820;28;20055;-62
2022/02/17 05:20:36;;;;;;;34.88;19.92;;;;;;;6.19;70.76;101034.63;5088909;28;20113;-62
2022/02/17 05:23:03;;;;;;;34.33;20.02;;;;;;;6.17;70.60;101031.25;5103657;28;20685;-62
2022/02/17 05:25:30;;;;;;;34.75;20.40;;;;;;;6.16;70.94;101015.66;5108695;28;20101;-62
2022/02/17 05:27:57;;;;;;;39.60;21.55;;;;;;;6.08;71.04;101012.47;5088873;28;20040;-61
2022/02/17 05:30:24;;;;;;;37.20;20.52;;;;;;;6.11;71.13;101030.59;5108292;28;20082;-62
2022/02/17 05:32:50;;;;;;;39.63;20.45;;;;;;;6.08;71.01;101028.09;5108917;28;20397;-62
2022/02/17 05:35:17;;;;;;;36.15;21.20;;;;;;;6.13;71.13;101020.97;5109200;28;20040;-62
2022/02/17 05:37:44;;;;;;;33.92;21.05;;;;;;;6.14;71.21;101041.75;5093442;28;20048;-59
2022/02/17 05:40:12;;;;;;;34.60;20.75;;;;;;;6.16;71.04;101046.94;5104017;28;20109;-60
2022/02/17 05:42:38;;;;;;;32.15;20.67;;;;;;;6.19;70.95;101046.81;5088556;28;20052;-61
2022/02/17 05:45:05;;;;;;;38.92;21.67;;;;;;;6.10;71.45;101031.50;5088823;28;20075;-61
2022/02/17 05:47:32;;;;;;;48.28;28.95;;;;;;;6.08;71.18;101061.97;5088195;28;20048;-61
2022/02/17 05:49:59;;;;;;;48.08;26.95;;;;;;;6.04;71.31;101051.66;5088440;28;20050;-62
2022/02/17 05:52:26;;;;;;;37.63;23.52;;;;;;;6.08;71.43;101031.53;5106102;28;20764;-62
2022/02/17 05:54:52;;;;;;;32.55;21.85;;;;;;;6.04;71.55;101019.53;5108617;28;20484;-61
2022/02/17 05:57:19;;;;;;;35.30;21.65;;;;;;;6.08;71.37;101026.31;5108926;28;20047;-62
2022/02/17 05:59:48;;;;;;;35.38;20.92;;;;;;;6.10;71.12;101040.16;5108613;28;20047;-62
2022/02/17 06:02:15;;;;;;;35.30;20.98;;;;;;;6.11;71.17;101036.66;5108426;28;20052;-61
2022/02/17 06:04:45;;;;;;;41.22;23.75;;;;;;;6.15;71.26;101022.63;5107185;28;20445;-61
2022/02/17 06:07:15;;;;;;;35.90;22.10;;;;;;;6.15;71.14;101013.97;5108878;28;20462;-62
2022/02/17 06:09:43;;;;;;;34.28;21.15;;;;;;;6.16;70.92;101005.25;5108565;28;20039;-61
2022/02/17 06:12:10;;;;;;;42.95;22.33;;;;;;;6.18;71.06;101032.97;5108279;28;20143;-63
2022/02/17 06:14:37;;;;;;;37.20;20.23;;;;;;;6.16;71.20;101052.16;5108219;28;20089;-61
2022/02/17 06:17:04;;;;;;;42.50;21.92;;;;;;;6.13;71.27;101034.00;5108403;28;20120;-65
2022/02/17 06:19:31;;;;;;;42.53;20.88;;;;;;;6.11;71.10;101034.06;5106795;28;20647;-62
2022/02/17 06:21:58;;;;;;;37.08;20.92;;;;;;;6.14;71.27;101043.53;5108962;28;20105;-62
2022/02/17 06:24:24;;;;;;;35.88;21.20;;;;;;;6.18;70.96;101055.53;5109425;28;20059;-62
2022/02/17 06:26:51;;;;;;;37.97;22.15;;;;;;;6.10;71.47;101031.50;5109058;28;20093;-61
2022/02/17 06:29:18;;;;;;;32.92;21.08;;;;;;;6.11;71.39;101020.19;5108756;28;20040;-62
2022/02/17 06:31:44;;;;;;;34.38;21.65;;;;;;;6.17;71.15;101041.66;5107564;28;20093;-62
2022/02/17 06:34:11;;;;;;;39.75;21.95;;;;;;;6.17;71.17;101056.44;5107734;28;20048;-61
2022/02/17 06:36:38;;;;;;;36.50;20.75;;;;;;;6.09;71.53;101040.22;5107104;28;20043;-61
2022/02/17 06:39:05;;;;;;;29.40;20.40;;;;;;;6.15;71.39;101045.22;5108215;28;20051;-61
2022/02/17 06:41:32;;;;;;;33.53;20.90;;;;;;;6.18;71.20;101056.41;5108845;28;20043;-62
2022/02/17 06:43:59;;;;;;;37.15;21.35;;;;;;;6.18;71.23;101037.28;5109030;28;20047;-61
2022/02/17 06:46:26;;;;;;;36.25;21.73;;;;;;;6.15;71.41;101040.03;5107813;28;20048;-62
2022/02/17 06:48:53;;;;;;;37.90;21.25;;;;;;;6.17;71.38;101036.47;5096883;28;20512;-61
2022/02/17 06:51:19;;;;;;;37.25;22.42;;;;;;;6.19;71.30;101050.25;5089405;28;20102;-62
2022/02/17 06:53:47;;;;;;;51.85;22.95;;;;;;;6.05;71.52;101058.53;5100667;28;20388;-62
2022/02/17 06:56:13;;;;;;;41.38;24.60;;;;;;;5.98;71.93;101062.28;5108620;28;20096;-60
2022/02/17 06:58:40;;;;;;;42.53;24.95;;;;;;;6.11;72.03;101086.16;5110549;28;20048;-62
2022/02/17 07:01:07;;;;;;;35.15;21.83;;;;;;;6.02;72.16;101095.13;5112262;28;20047;-62
2022/02/17 07:03:34;;;;;;;40.20;22.02;;;;;;;5.97;72.02;101076.16;5112942;28;20095;-63
2022/02/17 07:06:01;;;;;;;38.83;22.42;;;;;;;5.96;72.52;101095.28;5112832;28;20097;-62
2022/02/17 07:08:28;;;;;;;39.13;23.08;;;;;;;6.01;72.15;101085.59;5112911;28;20044;-62
2022/02/17 07:10:54;;;;;;;38.15;21.73;;;;;;;6.08;71.87;101075.81;5110737;28;20104;-61
2022/02/17 07:13:29;;;;;;;38.28;23.27;;;;;;;6.16;72.09;101073.84;5112319;28;20483;-62
2022/02/17 07:15:56;;;;;;;39.85;23.95;;;;;;;6.15;71.80;101079.94;5108929;28;20047;-62
2022/02/17 07:18:25;;;;;;;33.97;21.35;;;;;;;6.22;71.89;101072.75;5112251;28;20051;-63
2022/02/17 07:20:55;;;;;;;37.97;22.30;;;;;;;6.25;71.79;101064.88;5111937;28;20044;-62
2022/02/17 07:23:24;;;;;;;40.78;24.23;;;;;;;6.24;71.84;101076.19;5111910;28;20039;-62
2022/02/17 07:25:52;;;;;;;35.47;22.95;;;;;;;6.27;71.92;101081.31;5111519;28;20491;-62
2022/02/17 07:28:22;;;;;;;39.97;23.73;;;;;;;6.32;71.88;101100.25;5108143;28;20048;-61
2022/02/17 07:30:49;;;;;;;45.92;25.00;;;;;;;6.33;71.83;101075.88;5111404;28;20519;-62
2022/02/17 07:33:17;;;;;;;43.67;24.58;;;;;;;6.37;71.73;101071.41;5109069;28;20042;-63
2022/02/17 07:35:44;;;;;;;43.13;23.58;;;;;;;6.36;71.69;101088.81;5111632;28;20051;-62
2022/02/17 07:38:31;;;;;;;37.47;22.98;;;;;;;6.44;71.67;101087.72;5107752;28;20154;-64
2022/02/17 07:40:57;;;;;;;40.83;23.80;;;;;;;6.45;71.75;101078.97;5107731;28;20048;-61
2022/02/17 07:43:24;;;;;;;41.75;24.02;;;;;;;6.47;71.81;101078.00;5109921;28;20059;-61
2022/02/17 07:45:51;;;;;;;40.92;23.20;;;;;;;6.53;71.63;101066.53;5107555;28;20101;-62
2022/02/17 07:48:18;;;;;;;43.88;24.13;;;;;;;6.53;71.64;101090.84;5110004;28;20048;-62
2022/02/17 07:50:44;;;;;;;45.10;25.80;;;;;;;6.58;71.70;101097.66;5110306;28;20047;-61
2022/02/17 07:53:14;;;;;;;43.15;25.15;;;;;;;6.57;71.88;101104.63;5111017;28;20078;-62
2022/02/17 07:55:40;;;;;;;42.97;25.52;;;;;;;6.59;71.86;101094.13;5110624;28;20052;-62
2022/02/17 07:58:14;;;;;;;46.38;25.58;;;;;;;6.60;71.92;101083.69;5110741;28;20048;-62
2022/02/17 08:00:41;;;;;;;53.65;26.10;;;;;;;6.66;71.68;101087.81;5107949;28;20092;-61
2022/02/17 08:03:10;;;;;;;43.33;24.92;;;;;;;6.69;72.00;101079.88;5109016;28;20036;-62
2022/02/17 08:05:38;;;;;;;44.50;25.83;;;;;;;6.70;71.89;101090.28;5109856;28;20039;-62
2022/02/17 08:08:06;;;;;;;44.83;25.58;;;;;;;6.76;71.95;101102.25;5109845;28;20690;-62
2022/02/17 08:10:36;;;;;;;47.40;26.95;;;;;;;6.77;71.75;101097.88;5106435;28;20040;-62
2022/02/17 08:13:04;;;;;;;44.92;24.58;;;;;;;6.77;72.13;101095.28;5109530;28;20100;-62
2022/02/17 08:15:32;;;;;;;43.08;24.13;;;;;;;6.68;71.88;101114.72;5109943;28;20100;-61
2022/02/17 08:17:59;;;;;;;41.25;24.75;;;;;;;6.72;72.53;101110.22;5108445;28;20048;-62
2022/02/17 08:20:26;;;;;;;45.15;24.30;;;;;;;6.73;72.15;101104.09;5109793;28;20502;-61
2022/02/17 08:22:56;;;;;;;56.38;33.80;;;;;;;6.73;72.08;101111.91;5110270;28;20047;-62
2022/02/17 08:25:23;;;;;;;48.83;27.20;;;;;;;6.77;71.88;101111.78;5110323;28;20050;-62
2022/02/17 08:27:51;;;;;;;46.55;26.17;;;;;;;6.81;72.06;101121.19;5109842;28;20044;-61
2022/02/17 08:30:19;;;;;;;49.17;26.27;;;;;;;6.89;71.93;101109.63;5109422;28;20047;-62
2022/02/17 08:32:47;;;;;;;51.33;27.33;;;;;;;6.94;71.88;101125.97;5109789;28;20047;-61
2022/02/17 08:35:14;;;;;;;57.15;35.05;;;;;;;6.97;71.83;101105.84;5109039;28;20051;-61
2022/02/17 08:37:42;;;;;;;71.22;47.08;;;;;;;6.97;71.96;101110.19;5089395;28;20087;-62
2022/02/17 08:40:10;;;;;;;95.50;53.72;;;;;;;6.98;71.81;101106.69;5100143;28;20043;-62
2022/02/17 08:42:37;;;;;;;174.55;125.30;;;;;;;7.00;71.99;101110.94;5109217;28;20059;-62
2022/02/17 08:45:04;;;;;;;68.72;41.50;;;;;;;7.02;71.77;101109.16;5109448;28;20066;-61
2022/02/17 08:47:31;;;;;;;79.55;45.28;;;;;;;7.08;71.60;101125.50;5109964;28;20145;-61
2022/02/17 08:49:57;;;;;;;162.80;103.47;;;;;;;7.10;71.83;101114.09;5109626;28;20391;-60
2022/02/17 08:52:26;;;;;;;59.60;33.85;;;;;;;7.12;71.56;101119.25;5105497;28;20048;-61
2022/02/17 08:54:53;;;;;;;50.25;28.52;;;;;;;7.17;71.58;101112.09;5109283;28;20134;-59
2022/02/17 08:57:19;;;;;;;67.65;36.30;;;;;;;7.23;71.56;101109.28;5108915;28;20052;-59
2022/02/17 08:59:46;;;;;;;56.17;29.20;;;;;;;7.25;71.49;101112.69;5109157;28;20048;-59
2022/02/17 09:02:13;;;;;;;68.07;34.33;;;;;;;7.25;71.39;101115.28;5108671;28;20047;-59
2022/02/17 09:04:39;;;;;;;59.60;30.88;;;;;;;7.32;71.37;101106.31;5109127;28;20048;-58
2022/02/17 09:07:06;;;;;;;54.40;28.25;;;;;;;7.42;71.16;101101.59;5100637;28;20044;-59
2022/02/17 09:09:33;;;;;;;54.10;28.13;;;;;;;7.52;71.16;101112.56;5097246;28;20036;-61
2022/02/17 09:11:59;;;;;;;67.57;36.22;;;;;;;7.61;70.60;101112.19;5108947;28;20108;-61
2022/02/17 09:14:26;;;;;;;66.10;36.70;;;;;;;7.67;70.67;101108.50;5108751;28;20092;-61
2022/02/17 09:16:53;;;;;;;77.68;45.22;;;;;;;7.71;70.59;101106.59;5109017;28;20043;-60
2022/02/17 09:19:20;;;;;;;99.53;57.10;;;;;;;7.73;70.53;101100.41;5108714;28;20521;-61
2022/02/17 09:21:47;;;;;;;117.25;68.97;;;;;;;7.73;70.41;101099.56;5108503;28;20681;-61
2022/02/17 09:24:14;;;;;;;61.78;33.92;;;;;;;7.70;70.43;101105.78;5105953;28;20101;-60
2022/02/17 09:26:40;;;;;;;62.60;35.72;;;;;;;7.71;70.58;101106.59;5099862;28;20449;-60
2022/02/17 09:29:08;;;;;;;55.13;30.85;;;;;;;7.68;70.39;101120.63;5108919;28;20048;-61
2022/02/17 09:31:55;;;;;;;86.50;47.72;;;;;;;7.74;70.42;101114.34;5108491;28;20665;-61
2022/02/17 09:34:22;;;;;;;94.72;49.63;;;;;;;7.78;70.04;101108.09;5108047;28;20044;-59
2022/02/17 09:36:49;;;;;;;56.85;32.72;;;;;;;7.74;70.05;101104.72;5108604;28;20622;-60
2022/02/17 09:39:15;;;;;;;108.30;54.17;;;;;;;7.76;70.22;101102.94;5108033;28;20047;-59
2022/02/17 09:41:43;;;;;;;83.10;43.67;;;;;;;7.75;70.34;101093.38;5104040;28;20093;-60
2022/02/17 09:44:11;;;;;;;96.30;50.97;;;;;;;7.77;70.50;101085.47;5107941;28;20051;-61
2022/02/17 09:46:44;;;;;;;59.92;33.50;;;;;;;7.74;70.30;101083.00;5104831;28;20122;-61
2022/02/17 09:49:15;;;;;;;98.50;47.67;;;;;;;7.80;70.24;101088.81;5103893;28;20491;-61
2022/02/17 09:51:43;;;;;;;81.65;41.17;;;;;;;7.79;70.23;101081.06;5107820;28;20039;-61
2022/02/17 09:54:10;;;;;;;104.05;63.97;;;;;;;7.88;69.92;101083.28;5107784;28;20113;-61
2022/02/17 09:56:39;;;;;;;80.15;47.08;;;;;;;7.93;69.86;101083.94;5107997;28;20044;-61
2022/02/17 09:59:11;;;;;;;47.85;28.90;;;;;;;7.89;69.86;101076.31;5088025;28;20047;-61
2022/02/17 10:01:51;;;;;;;53.38;30.17;;;;;;;7.82;69.86;101083.53;5087741;28;20101;-61
2022/02/17 10:04:21;;;;;;;50.70;29.23;;;;;;;7.80;69.93;101080.97;5089388;28;20056;-61
2022/02/17 10:06:55;;;;;;;73.85;42.85;;;;;;;7.68;70.17;101095.38;5107056;28;20055;-61
2022/02/17 10:09:34;;;;;;;73.45;41.10;;;;;;;7.65;70.02;101094.66;5108103;28;20581;-59
2022/02/17 10:12:01;;;;;;;65.10;35.20;;;;;;;7.63;70.28;101088.63;5107674;28;20104;-59
2022/02/17 10:14:29;;;;;;;68.85;38.90;;;;;;;7.57;70.32;101086.25;5107825;28;20075;-59
2022/02/17 10:16:58;;;;;;;52.72;29.80;;;;;;;7.62;70.20;101082.56;5107695;28;20407;-59
2022/02/17 10:19:28;;;;;;;109.40;60.17;;;;;;;7.60;70.15;101096.59;5108415;28;20131;-59
2022/02/17 10:22:12;;;;;;;64.50;36.67;;;;;;;7.62;70.19;101090.41;5090434;28;20676;-59
2022/02/17 10:24:47;;;;;;;55.42;30.60;;;;;;;7.70;69.89;101091.88;5107710;28;20541;-59
2022/02/17 10:27:20;;;;;;;51.47;29.70;;;;;;;7.72;69.53;101090.91;5107495;28;20120;-59
2022/02/17 10:30:10;;;;;;;48.53;28.65;;;;;;;7.64;69.90;101088.59;5108236;28;20525;-59
2022/02/17 10:32:52;;;;;;;50.70;29.02;;;;;;;7.68;70.03;101092.78;5087812;28;20059;-59
2022/02/17 10:35:18;;;;;;;48.33;28.17;;;;;;;7.70;69.57;101097.09;5091623;28;20184;-59
2022/02/17 10:37:49;;;;;;;47.38;27.17;;;;;;;7.71;69.63;101101.38;5091106;28;20101;-59
2022/02/17 10:40:20;;;;;;;53.08;29.55;;;;;;;7.74;69.40;101090.84;5109546;28;20050;-59
2022/02/17 10:43:10;;;;;;;50.47;29.80;;;;;;;7.75;69.46;101095.16;5111907;28;20088;-59
2022/02/17 10:45:41;;;;;;;49.53;29.67;;;;;;;7.77;69.39;101096.78;5111830;28;20078;-59
2022/02/17 10:48:26;;;;;;;52.28;29.67;;;;;;;7.83;69.15;101095.69;5103637;27;20050;-59
2022/02/17 10:51:05;;;;;;;48.17;28.67;;;;;;;7.90;69.00;101088.44;5091260;28;20043;-59
2022/02/17 10:53:35;;;;;;;47.88;28.35;;;;;;;7.80;69.14;101093.22;5091539;28;20462;-59
2022/02/17 10:56:05;;;;;;;46.63;28.65;;;;;;;7.84;68.90;101098.22;5091643;28;20075;-59
2022/02/17 10:58:36;;;;;;;48.05;27.77;;;;;;;7.83;68.96;101093.06;5090956;28;20045;-59
2022/02/17 11:01:05;;;;;;;43.90;27.02;;;;;;;7.83;68.94;101083.50;5091218;28;20047;-59
2022/02/17 11:03:34;;;;;;;50.63;29.30;;;;;;;7.92;68.72;101079.66;5092753;28;20043;-59
2022/02/17 11:06:09;;;;;;;46.95;27.33;;;;;;;7.90;68.59;101071.03;5107890;27;20048;-59
2022/02/17 11:08:35;;;;;;;46.15;28.38;;;;;;;7.75;69.08;101062.03;5106112;28;20051;-59
2022/02/17 11:11:03;;;;;;;45.08;28.48;;;;;;;7.84;68.70;101045.97;5108808;28;20048;-59
2022/02/17 11:13:31;;;;;;;80.97;42.22;;;;;;;7.89;68.53;101055.41;5111795;28;20079;-59
2022/02/17 11:16:00;;;;;;;44.55;26.27;;;;;;;7.92;68.72;101066.59;5111175;28;20429;-59
2022/02/17 11:18:27;;;;;;;46.85;27.30;;;;;;;7.98;68.29;101068.09;5110838;28;20077;-59
2022/02/17 11:20:55;;;;;;;189.65;101.47;;;;;;;7.93;68.48;101065.66;5111095;28;20054;-59
2022/02/17 11:23:35;;;;;;;114.00;60.33;;;;;;;7.95;68.55;101068.25;5109761;28;20051;-59